Terminal Aerodrome Forecast
Issued by NWS Melbourne, FL

Home | Current Version | Previous Version | Text Only | Print | Product List | Glossary On
Versions: 1 2 3 4 5 6 7 8 9 10 11 12
000
FTUS42 KMLB 221100
TAFVRB
TAF
KVRB 221127Z 2212/2312 VRB03KT P6SM BKN120
     FM221600 18009KT P6SM VCSH SCT025 BKN050 BKN100
     FM230600 17005KT 6SM BR SCT006 OVC015=

USA.gov is the U.S. government's official web portal to all federal, state and local government web resources and services.